Time;durP1;ratioP1;P1;durP2;ratioP2;P2;SDS_P1;SDS_P2;PMS_P1;PMS_P2;Temp;Humidity;BMP_temperature;BMP_pressure;BME280_temperature;BME280_humidity;BME280_pressure;Samples;Min_cycle;Max_cycle;Signal;HPM_P1;HPM_P2
2023/01/11 00:00:35;;;;;;;8.27;2.90;;;;;;;4.45;77.54;101349.88;4953808;28;20111;-56
2023/01/11 00:03:03;;;;;;;9.52;2.65;;;;;;;4.49;77.03;101346.28;4950025;28;20163;-58
2023/01/11 00:05:29;;;;;;;7.15;2.20;;;;;;;4.50;77.21;101340.19;4955496;28;20100;-57
2023/01/11 00:07:55;;;;;;;13.60;4.43;;;;;;;4.51;76.86;101336.69;4950685;28;20099;-60
2023/01/11 00:10:21;;;;;;;9.88;3.15;;;;;;;4.51;77.26;101330.63;4952134;28;20447;-62
2023/01/11 00:12:46;;;;;;;10.90;3.05;;;;;;;4.51;76.95;101326.25;4945953;28;20079;-59
2023/01/11 00:15:13;;;;;;;11.38;2.75;;;;;;;4.50;76.60;101321.09;4948221;28;20575;-62
2023/01/11 00:17:38;;;;;;;6.50;2.63;;;;;;;4.49;76.66;101314.16;4946296;28;20178;-62
2023/01/11 00:20:04;;;;;;;7.43;2.58;;;;;;;4.48;76.59;101315.06;4950024;28;20152;-58
2023/01/11 00:22:30;;;;;;;6.82;2.67;;;;;;;4.45;76.74;101305.56;4951066;28;20096;-57
2023/01/11 00:24:55;;;;;;;10.18;2.67;;;;;;;4.42;76.86;101309.09;4949598;28;20146;-56
2023/01/11 00:27:21;;;;;;;8.38;2.53;;;;;;;4.42;76.71;101297.81;4945473;28;20088;-59
2023/01/11 00:29:47;;;;;;;6.65;2.40;;;;;;;4.44;76.52;101293.44;4946564;28;20154;-58
2023/01/11 00:32:12;;;;;;;10.77;2.80;;;;;;;4.46;76.60;101296.00;4946189;28;20610;-61
2023/01/11 00:34:37;;;;;;;12.25;2.63;;;;;;;4.46;76.42;101302.06;4951164;28;20098;-60
2023/01/11 00:37:03;;;;;;;13.50;3.15;;;;;;;4.48;76.32;101300.25;4944518;28;20162;-59
2023/01/11 00:39:29;;;;;;;9.27;2.60;;;;;;;4.52;76.07;101304.53;4947059;28;20079;-58
2023/01/11 00:50:07;;;;;;;6.22;2.08;;;;;;;4.54;75.98;101296.66;4949542;28;20095;-60
2023/01/11 00:52:33;;;;;;;5.85;2.58;;;;;;;4.58;75.90;101287.88;4952896;28;20092;-60
2023/01/11 00:54:58;;;;;;;7.68;2.88;;;;;;;4.63;75.89;101295.56;4948763;28;20494;-59
2023/01/11 00:57:24;;;;;;;15.70;3.95;;;;;;;4.66;75.85;101285.09;4953977;28;20091;-60
2023/01/11 00:59:49;;;;;;;13.10;2.97;;;;;;;4.70;75.39;101284.13;4957421;28;20081;-60
2023/01/11 01:02:15;;;;;;;8.20;2.25;;;;;;;4.70;75.30;101284.97;4954838;28;20104;-58
2023/01/11 01:04:40;;;;;;;16.25;3.00;;;;;;;4.73;75.51;101276.22;4951698;28;20086;-60
2023/01/11 01:07:06;;;;;;;8.68;2.50;;;;;;;4.75;75.36;101264.03;4950395;28;20092;-60
2023/01/11 01:09:32;;;;;;;6.55;1.98;;;;;;;4.76;75.44;101265.72;4952243;28;20087;-59
2023/01/11 01:11:58;;;;;;;6.05;2.75;;;;;;;4.79;75.17;101263.03;4952727;28;20084;-60
2023/01/11 01:14:28;;;;;;;9.27;2.97;;;;;;;4.79;74.78;101267.41;4955946;28;20080;-58
2023/01/11 01:17:00;;;;;;;7.75;2.58;;;;;;;4.79;75.03;101251.75;4953595;28;20252;-59
2023/01/11 01:19:26;;;;;;;8.18;2.80;;;;;;;4.80;75.12;101263.91;4954059;28;20079;-58
2023/01/11 01:21:56;;;;;;;10.50;2.30;;;;;;;4.80;74.83;101262.13;4945175;28;20104;-59
2023/01/11 01:24:21;;;;;;;7.22;2.60;;;;;;;4.80;74.98;101253.47;4951274;28;20086;-58
2023/01/11 01:26:47;;;;;;;10.63;2.50;;;;;;;4.79;74.96;101255.19;4952812;28;20107;-58
2023/01/11 01:29:14;;;;;;;6.43;2.50;;;;;;;4.78;74.56;101248.28;4952746;28;20091;-58
2023/01/11 01:31:40;;;;;;;15.57;3.15;;;;;;;4.76;74.52;101249.22;4950142;28;20095;-60
2023/01/11 01:34:07;;;;;;;6.95;2.42;;;;;;;4.74;74.57;101246.66;4950362;28;20079;-58
2023/01/11 01:36:32;;;;;;;10.05;2.85;;;;;;;4.73;74.71;101234.53;4951509;28;20494;-58
2023/01/11 01:38:59;;;;;;;7.97;2.72;;;;;;;4.69;74.83;101228.50;4953613;28;20084;-61
2023/01/11 01:41:25;;;;;;;12.27;2.80;;;;;;;4.66;74.47;101228.59;4945716;28;20736;-58
2023/01/11 01:43:52;;;;;;;10.02;2.40;;;;;;;4.63;74.78;101227.81;4952149;28;20085;-61
2023/01/11 01:46:20;;;;;;;10.90;3.03;;;;;;;4.62;75.03;101220.88;4953640;28;20100;-62
2023/01/11 01:48:54;;;;;;;7.35;1.92;;;;;;;4.64;74.65;101214.75;4947680;28;20115;-61
2023/01/11 01:51:27;;;;;;;11.52;2.20;;;;;;;4.67;74.64;101219.03;4947507;28;20123;-59
2023/01/11 01:53:57;;;;;;;8.55;2.22;;;;;;;4.68;74.55;101216.41;4953415;28;20168;-59
2023/01/11 01:56:28;;;;;;;9.18;2.35;;;;;;;4.71;74.53;101223.28;4950480;28;20143;-62
2023/01/11 01:58:59;;;;;;;11.17;2.30;;;;;;;4.73;74.41;101213.66;4945872;28;20087;-60
2023/01/11 02:04:23;;;;;;;10.60;3.97;;;;;;;4.76;74.41;101203.16;4949847;28;20175;-58
2023/01/11 02:06:53;;;;;;;10.98;3.22;;;;;;;4.79;73.97;101197.84;4948143;28;20531;-61
2023/01/11 02:09:58;;;;;;;12.38;2.30;;;;;;;4.79;73.64;101195.22;4953970;28;20496;-57
2023/01/11 02:12:29;;;;;;;7.80;2.42;;;;;;;4.82;73.96;101187.34;4958804;28;20570;-59
2023/01/11 02:14:55;;;;;;;11.32;2.22;;;;;;;4.84;73.95;101182.94;4952957;28;20072;-58
2023/01/11 02:17:20;;;;;;;11.18;2.28;;;;;;;4.85;73.63;101174.22;4951852;28;20086;-62
2023/01/11 02:19:55;;;;;;;11.13;2.20;;;;;;;4.84;73.56;101167.28;4951321;28;20087;-59
2023/01/11 02:22:41;;;;;;;7.45;1.98;;;;;;;4.84;73.55;101169.06;4949973;28;20629;-61
2023/01/11 02:25:40;;;;;;;6.88;2.42;;;;;;;4.86;73.51;101167.25;4935633;28;20218;-59
2023/01/11 02:28:21;;;;;;;8.90;3.08;;;;;;;4.88;73.58;101155.03;4951690;28;20072;-61
2023/01/11 02:31:22;;;;;;;5.13;1.90;;;;;;;4.88;73.32;101150.69;4954234;28;20075;-59
2023/01/11 02:34:03;;;;;;;7.20;2.10;;;;;;;4.92;73.34;101153.19;4949240;28;20498;-58
2023/01/11 02:36:34;;;;;;;7.82;3.50;;;;;;;4.95;73.58;101147.88;4938604;28;20099;-62
2023/01/11 02:39:18;;;;;;;4.40;2.00;;;;;;;4.95;73.34;101145.28;4947548;28;20078;-61
2023/01/11 02:45:00;;;;;;;8.95;2.20;;;;;;;4.99;73.40;101141.69;4951272;28;20137;-58
2023/01/11 02:47:51;;;;;;;9.38;3.25;;;;;;;4.95;72.91;101129.63;4955482;28;20071;-62
2023/01/11 02:50:38;;;;;;;6.45;1.98;;;;;;;4.90;73.12;101127.16;4951583;28;20552;-58
2023/01/11 02:53:11;;;;;;;4.85;2.08;;;;;;;4.87;73.29;101122.88;4949664;28;20094;-60
2023/01/11 02:55:47;;;;;;;5.55;2.00;;;;;;;4.86;73.46;101115.97;4952458;28;20123;-59
2023/01/11 02:58:15;;;;;;;11.25;2.20;;;;;;;4.80;73.34;101112.66;4951217;28;20430;-59
2023/01/11 03:00:42;;;;;;;5.72;2.08;;;;;;;4.75;73.29;101106.72;4944269;28;20143;-58
2023/01/11 03:03:23;;;;;;;7.05;1.85;;;;;;;4.67;73.25;101102.59;4943825;28;20575;-58
2023/01/11 03:06:12;;;;;;;12.00;3.07;;;;;;;4.62;73.74;101095.75;4950406;28;20563;-58
2023/01/11 03:09:19;;;;;;;7.25;2.88;;;;;;;4.56;73.41;101097.66;4951239;28;20083;-58
2023/01/11 03:15:29;;;;;;;7.60;2.08;;;;;;;4.51;73.57;101077.84;4949229;28;20166;-62
2023/01/11 03:18:13;;;;;;;8.60;2.38;;;;;;;4.50;73.64;101071.75;4960297;28;20075;-59
2023/01/11 03:20:53;;;;;;;4.72;1.70;;;;;;;4.51;73.37;101077.84;4948071;28;20118;-59
2023/01/11 03:24:02;;;;;;;10.57;2.30;;;;;;;4.53;73.24;101082.09;4951441;28;20110;-58
2023/01/11 03:27:07;;;;;;;11.55;2.50;;;;;;;4.56;73.32;101076.81;4950433;28;20154;-58
2023/01/11 03:29:55;;;;;;;6.22;2.03;;;;;;;4.66;72.95;101082.63;4952651;28;20071;-60
2023/01/11 03:32:26;;;;;;;7.93;2.63;;;;;;;4.74;73.10;101069.38;4949732;28;20092;-60
2023/01/11 03:34:52;;;;;;;7.70;2.05;;;;;;;4.78;72.83;101065.75;4950998;28;20090;-58
2023/01/11 03:37:36;;;;;;;5.68;1.90;;;;;;;4.79;72.71;101062.25;4943355;28;20172;-57
2023/01/11 03:40:11;;;;;;;7.28;2.00;;;;;;;4.83;72.54;101048.25;4950183;28;20093;-59
2023/01/11 03:43:09;;;;;;;5.38;1.38;;;;;;;4.86;72.43;101053.38;4949224;28;20190;-59
2023/01/11 03:45:30;;;;;;;10.75;2.33;;;;;;;4.90;71.92;101040.25;4947868;28;20175;-58
2023/01/11 03:47:59;;;;;;;10.70;3.33;;;;;;;4.94;72.05;101034.91;4939112;28;20546;-58
2023/01/11 03:50:26;;;;;;;3.95;1.67;;;;;;;4.98;71.97;101025.22;4944020;28;20174;-59
2023/01/11 03:52:54;;;;;;;6.28;1.65;;;;;;;5.01;72.25;101025.13;4943119;28;20064;-59
2023/01/11 03:55:25;;;;;;;6.90;1.67;;;;;;;5.06;71.76;101007.59;4947526;28;20425;-59
2023/01/11 03:57:53;;;;;;;8.05;2.13;;;;;;;5.08;71.51;101010.16;4948243;28;20098;-57
2023/01/11 04:00:23;;;;;;;4.75;1.70;;;;;;;5.09;71.40;101017.91;4945358;28;20087;-58
2023/01/11 04:02:49;;;;;;;5.72;1.85;;;;;;;5.08;71.58;101010.16;4948232;28;20245;-58
2023/01/11 04:05:14;;;;;;;6.05;1.27;;;;;;;5.09;70.97;101012.72;4951520;28;20630;-59
2023/01/11 04:07:40;;;;;;;6.15;1.90;;;;;;;5.07;70.98;101008.44;4947385;28;20084;-61
2023/01/11 04:10:06;;;;;;;10.80;2.22;;;;;;;5.06;71.27;101011.94;4948543;28;20178;-61
2023/01/11 04:12:32;;;;;;;7.80;1.77;;;;;;;5.04;71.41;101010.25;4947754;28;20158;-58
2023/01/11 04:14:57;;;;;;;3.15;1.20;;;;;;;5.01;71.11;101009.50;4938565;28;20095;-58
2023/01/11 04:17:23;;;;;;;6.35;1.70;;;;;;;4.98;71.35;100994.78;4944872;28;20088;-59
2023/01/11 04:19:48;;;;;;;9.90;2.33;;;;;;;5.01;71.37;101005.13;4954140;28;20086;-57
2023/01/11 04:22:14;;;;;;;6.43;1.88;;;;;;;5.04;70.99;101004.19;4948453;28;20113;-57
2023/01/11 04:24:39;;;;;;;5.28;1.83;;;;;;;5.10;71.01;101000.53;4949493;28;20432;-62
2023/01/11 04:27:04;;;;;;;11.93;2.60;;;;;;;5.14;70.69;100999.53;4945491;28;20598;-59
2023/01/11 04:29:30;;;;;;;6.20;2.08;;;;;;;5.17;70.41;100997.69;4948214;28;20161;-58
2023/01/11 04:31:56;;;;;;;6.25;1.80;;;;;;;5.17;70.48;100992.47;4942609;28;20086;-58
2023/01/11 04:34:21;;;;;;;6.22;2.20;;;;;;;5.19;70.17;100995.03;4943721;28;20727;-56
2023/01/11 04:36:47;;;;;;;4.45;2.05;;;;;;;5.18;70.09;100995.91;4946719;28;20194;-62
2023/01/11 04:39:13;;;;;;;8.27;2.42;;;;;;;5.18;70.28;100995.91;4947255;28;20088;-63
2023/01/11 04:44:27;;;;;;;5.00;1.50;;;;;;;5.23;69.83;100990.56;4947492;28;20106;-56
2023/01/11 04:46:52;;;;;;;7.88;1.90;;;;;;;5.27;69.58;100994.78;4944214;28;22020;-60
2023/01/11 04:49:18;;;;;;;8.65;2.35;;;;;;;5.27;70.05;100984.34;4945468;28;20499;-58
2023/01/11 04:51:43;;;;;;;11.77;2.10;;;;;;;5.29;69.45;101000.81;4937918;28;20084;-57
2023/01/11 04:54:10;;;;;;;4.53;1.52;;;;;;;5.29;69.80;101003.41;4944826;28;20084;-59
2023/01/11 04:56:35;;;;;;;7.25;1.85;;;;;;;5.27;69.46;100997.38;4945292;28;20099;-56
2023/01/11 04:59:01;;;;;;;5.20;2.20;;;;;;;5.27;69.36;100992.16;4947273;28;20083;-60
2023/01/11 05:01:26;;;;;;;7.97;2.45;;;;;;;5.26;69.47;100986.13;4945162;28;20095;-58
2023/01/11 05:03:53;;;;;;;6.97;1.60;;;;;;;5.27;69.31;100989.56;4945750;28;20148;-64
2023/01/11 05:06:18;;;;;;;6.68;2.15;;;;;;;5.28;69.25;100986.91;4947005;28;20474;-58
2023/01/11 05:08:47;;;;;;;7.28;2.58;;;;;;;5.28;69.31;100988.66;4937158;28;20084;-61
2023/01/11 05:11:14;;;;;;;6.65;1.80;;;;;;;5.31;69.03;100980.75;4943563;28;20166;-59
2023/01/11 05:13:43;;;;;;;5.70;2.25;;;;;;;5.31;69.27;100970.31;4943964;28;20563;-57
2023/01/11 05:16:18;;;;;;;4.93;2.45;;;;;;;5.31;69.24;100972.91;4945879;28;20154;-56
2023/01/11 05:18:49;;;;;;;6.68;1.98;;;;;;;5.33;68.80;100960.69;4944244;28;20590;-59
2023/01/11 05:21:17;;;;;;;7.95;2.00;;;;;;;5.34;69.17;100950.19;4944215;28;20099;-61
2023/01/11 05:23:44;;;;;;;7.25;2.30;;;;;;;5.33;69.11;100945.84;4944908;28;20122;-60
2023/01/11 05:26:16;;;;;;;7.78;1.90;;;;;;;5.30;69.43;100934.69;4939858;28;20105;-63
2023/01/11 05:28:42;;;;;;;6.72;2.10;;;;;;;5.27;69.53;100921.72;4944319;28;20080;-64
2023/01/11 05:31:08;;;;;;;6.70;2.55;;;;;;;5.25;69.77;100908.75;4935363;28;20086;-64
2023/01/11 05:33:33;;;;;;;8.68;2.00;;;;;;;5.25;69.45;100907.88;4941713;28;20076;-63
2023/01/11 05:36:13;;;;;;;6.75;1.83;;;;;;;5.25;69.26;100920.91;4944685;28;20455;-61
2023/01/11 05:38:39;;;;;;;5.53;2.45;;;;;;;5.25;69.26;100913.09;4945813;28;20090;-60
2023/01/11 05:41:08;;;;;;;6.95;2.20;;;;;;;5.26;69.54;100914.78;4939370;28;20103;-61
2023/01/11 05:45:27;;;;;;;2.20;1.08;;;;;;;5.27;69.31;100924.34;4935026;28;20135;-60
2023/01/11 05:46:24;;;;;;;10.15;3.78;;;;;;;5.31;69.65;100924.16;4939673;28;20212;-60
2023/01/11 05:48:50;;;;;;;11.77;2.20;;;;;;;5.34;69.31;100918.84;4945602;28;20083;-59
2023/01/11 05:51:15;;;;;;;8.57;2.17;;;;;;;5.37;69.51;100920.50;4953632;28;20087;-57
2023/01/11 05:53:41;;;;;;;7.72;2.58;;;;;;;5.42;69.83;100917.78;4968095;23;20162;-54
2023/01/11 05:56:06;;;;;;;15.18;2.28;;;;;;;5.45;69.47;100915.03;4943562;28;20234;-56
2023/01/11 05:58:32;;;;;;;6.22;2.20;;;;;;;5.48;69.32;100913.19;4936714;28;20158;-54
2023/01/11 06:00:57;;;;;;;7.00;2.85;;;;;;;5.50;69.05;100905.28;4946989;28;20187;-55
2023/01/11 06:03:24;;;;;;;8.35;2.88;;;;;;;5.48;68.96;100899.28;4934712;28;20111;-58
2023/01/11 06:05:51;;;;;;;5.38;2.13;;;;;;;5.50;68.82;100902.69;4943558;28;20082;-53
2023/01/11 06:08:17;;;;;;;3.92;1.42;;;;;;;5.50;69.05;100905.28;4944414;28;20718;-55
2023/01/11 06:10:45;;;;;;;5.88;2.10;;;;;;;5.47;68.75;100898.44;4944282;28;20081;-55
2023/01/11 06:13:25;;;;;;;7.45;2.30;;;;;;;5.48;68.89;100899.28;4940746;28;21764;-52
2023/01/11 06:16:04;;;;;;;6.20;2.47;;;;;;;5.46;68.70;100899.34;4947559;28;20551;-54
2023/01/11 06:18:35;;;;;;;6.60;2.28;;;;;;;5.47;69.14;100897.56;4952153;28;20569;-53
2023/01/11 06:21:01;;;;;;;4.22;1.65;;;;;;;5.48;68.56;100894.94;4946330;28;20122;-52
2023/01/11 06:23:29;;;;;;;6.53;1.90;;;;;;;5.51;69.02;100906.16;4949316;28;20111;-54
2023/01/11 06:25:54;;;;;;;5.15;1.80;;;;;;;5.48;68.83;100897.53;4946031;28;20075;-54
2023/01/11 06:28:20;;;;;;;8.80;3.47;;;;;;;5.50;68.55;100897.47;4949188;28;20076;-52
2023/01/11 06:30:53;;;;;;;5.47;2.17;;;;;;;5.46;68.79;100899.34;4946935;28;20110;-54
2023/01/11 06:33:19;;;;;;;14.77;4.93;;;;;;;5.46;69.03;100891.50;4948595;28;20106;-54
2023/01/11 06:35:45;;;;;;;6.90;2.60;;;;;;;5.46;68.83;100886.28;4938039;28;20083;-55
2023/01/11 06:38:13;;;;;;;4.00;1.60;;;;;;;5.44;68.72;100901.16;4947357;28;20099;-51
2023/01/11 06:40:40;;;;;;;8.27;2.75;;;;;;;5.46;69.30;100901.94;4949001;28;20087;-56
2023/01/11 06:43:07;;;;;;;5.35;2.70;;;;;;;5.47;68.88;100900.19;4942808;28;20111;-56
2023/01/11 06:45:33;;;;;;;8.68;3.08;;;;;;;5.51;69.03;100900.94;4943152;29;20087;-52
2023/01/11 06:47:59;;;;;;;5.28;2.10;;;;;;;5.50;68.93;100905.28;4945005;28;20080;-53
2023/01/11 06:50:25;;;;;;;6.28;1.90;;;;;;;5.49;69.16;100894.03;4937402;28;20123;-57
2023/01/11 06:52:59;;;;;;;7.97;2.03;;;;;;;5.49;68.93;100901.84;4933814;28;20107;-55
2023/01/11 06:55:26;;;;;;;6.65;2.45;;;;;;;5.54;69.28;100899.06;4943107;28;20103;-54
2023/01/11 06:57:52;;;;;;;7.00;3.10;;;;;;;5.51;69.11;100893.97;4939369;28;20094;-53
2023/01/11 07:00:18;;;;;;;13.00;4.15;;;;;;;5.51;69.63;100890.50;4944169;28;20087;-53
2023/01/11 07:02:44;;;;;;;8.10;2.85;;;;;;;5.47;70.31;100881.91;4944811;28;20154;-56
2023/01/11 07:05:10;;;;;;;8.55;2.08;;;;;;;5.43;70.68;100889.00;4946048;28;20084;-52
2023/01/11 07:07:37;;;;;;;9.65;2.50;;;;;;;5.41;70.47;100892.56;4947459;28;20076;-52
2023/01/11 07:10:06;;;;;;;5.97;2.13;;;;;;;5.39;70.62;100882.16;4947491;28;20087;-54
2023/01/11 07:12:32;;;;;;;9.65;3.65;;;;;;;5.39;71.02;100878.72;4940814;28;20135;-56
2023/01/11 07:14:58;;;;;;;6.90;2.35;;;;;;;5.40;70.82;100890.88;4944791;28;20084;-51
2023/01/11 07:17:23;;;;;;;4.68;2.15;;;;;;;5.40;71.11;100894.31;4950222;28;20088;-52
2023/01/11 07:19:49;;;;;;;6.97;2.28;;;;;;;5.43;70.98;100896.81;4948915;28;20087;-53
2023/01/11 07:22:15;;;;;;;6.22;2.67;;;;;;;5.45;71.01;100892.41;4949427;28;20087;-52
2023/01/11 07:24:40;;;;;;;5.47;2.35;;;;;;;5.46;70.56;100906.28;4947598;28;20131;-52
2023/01/11 07:27:06;;;;;;;8.85;2.67;;;;;;;5.45;70.82;100897.63;4945900;28;20483;-53
2023/01/11 07:29:31;;;;;;;5.28;1.90;;;;;;;5.47;70.42;100906.25;4947770;28;20586;-53
2023/01/11 07:31:57;;;;;;;8.02;2.72;;;;;;;5.48;70.36;100910.59;4950039;28;20159;-52
2023/01/11 07:34:22;;;;;;;9.93;2.78;;;;;;;5.52;70.28;100905.25;4949643;28;20578;-53
2023/01/11 07:36:48;;;;;;;9.35;2.40;;;;;;;5.57;70.62;100903.34;4951033;28;20087;-53
2023/01/11 07:39:14;;;;;;;4.15;1.63;;;;;;;5.56;70.50;100904.22;4954401;28;20083;-53
2023/01/11 07:44:23;;;;;;;5.32;2.28;;;;;;;5.61;70.30;100899.72;4947028;28;20233;-52
2023/01/11 07:46:49;;;;;;;5.93;2.20;;;;;;;5.60;70.02;100895.41;4953488;28;20742;-52
2023/01/11 07:49:14;;;;;;;7.57;2.20;;;;;;;5.62;69.94;100897.03;4945571;28;20076;-55
2023/01/11 07:51:40;;;;;;;7.28;1.98;;;;;;;5.61;69.86;100900.56;4940216;28;20072;-55
2023/01/11 07:54:05;;;;;;;7.50;2.00;;;;;;;5.62;69.96;100897.03;4943393;28;20505;-53
2023/01/11 07:56:31;;;;;;;7.35;2.08;;;;;;;5.65;69.59;100903.94;4948204;28;20103;-55
2023/01/11 07:58:56;;;;;;;8.55;3.90;;;;;;;5.68;69.77;100901.19;4946450;28;20095;-54
2023/01/11 08:01:23;;;;;;;6.50;2.13;;;;;;;5.70;69.53;100904.59;4944223;28;20424;-57
2023/01/11 08:03:49;;;;;;;5.57;2.08;;;;;;;5.73;69.68;100898.44;4941408;28;20104;-54
2023/01/11 08:06:14;;;;;;;8.48;2.78;;;;;;;5.75;69.54;100900.09;4948242;28;20075;-53
2023/01/11 08:08:41;;;;;;;5.25;1.98;;;;;;;5.75;69.18;100881.81;4948708;28;20088;-53
2023/01/11 08:16:51;;;;;;;6.20;2.15;;;;;;;5.84;69.27;100885.00;4922593;29;20179;-55
2023/01/11 08:19:17;;;;;;;8.27;2.40;;;;;;;5.83;69.62;100885.91;4938032;28;20100;-57
2023/01/11 08:21:43;;;;;;;4.93;2.10;;;;;;;5.82;69.44;100886.81;4939386;28;20100;-54
2023/01/11 08:24:09;;;;;;;7.68;2.72;;;;;;;5.86;69.63;100880.56;4945120;28;20133;-53
2023/01/11 08:26:34;;;;;;;9.02;2.63;;;;;;;5.88;69.55;100882.25;4946699;28;20462;-55
2023/01/11 08:29:00;;;;;;;6.40;2.30;;;;;;;5.92;69.52;100888.19;4937094;28;20462;-51
2023/01/11 08:31:25;;;;;;;4.68;2.33;;;;;;;5.96;69.33;100879.34;4945731;28;20159;-52
2023/01/11 08:33:51;;;;;;;8.93;2.20;;;;;;;6.00;69.00;100880.94;4935345;28;20150;-55
2023/01/11 08:36:16;;;;;;;5.75;2.50;;;;;;;6.02;69.11;100873.06;4946060;28;20087;-56
2023/01/11 08:38:42;;;;;;;8.43;1.90;;;;;;;6.03;69.18;100873.00;4943538;28;20080;-52
2023/01/11 08:41:12;;;;;;;7.45;2.33;;;;;;;6.04;69.13;100861.66;4943358;28;20162;-55
2023/01/11 08:43:40;;;;;;;5.38;2.20;;;;;;;6.04;69.26;100872.09;4941911;28;20645;-55
2023/01/11 08:46:07;;;;;;;4.88;2.40;;;;;;;6.03;69.58;100865.16;4939065;28;20114;-53
2023/01/11 08:48:32;;;;;;;6.43;2.58;;;;;;;6.05;69.54;100872.97;4937991;28;20084;-55
2023/01/11 08:50:58;;;;;;;14.00;4.13;;;;;;;6.06;69.57;100858.97;4938050;28;20095;-53
2023/01/11 08:53:23;;;;;;;6.65;2.53;;;;;;;6.09;69.55;100861.47;4945338;28;20102;-55
2023/01/11 08:55:50;;;;;;;5.97;2.30;;;;;;;6.10;69.44;100861.44;4942952;28;20084;-56
2023/01/11 08:58:16;;;;;;;9.57;3.33;;;;;;;6.12;69.23;100861.38;4945869;28;20159;-55
2023/01/11 09:00:41;;;;;;;8.45;2.35;;;;;;;6.13;69.72;100860.47;4939098;28;20091;-53
2023/01/11 09:03:07;;;;;;;7.50;2.45;;;;;;;6.12;69.75;100860.53;4936094;28;21390;-52
2023/01/11 09:05:33;;;;;;;7.65;2.55;;;;;;;6.15;69.43;100856.03;4941120;28;21003;-52
2023/01/11 09:07:59;;;;;;;9.13;2.83;;;;;;;6.17;69.48;100863.81;4928475;28;20084;-52
2023/01/11 09:10:28;;;;;;;10.25;3.05;;;;;;;6.19;69.39;100859.38;4939555;28;20080;-56
2023/01/11 09:12:55;;;;;;;9.02;2.80;;;;;;;6.19;69.42;100869.84;4944292;28;20566;-52
2023/01/11 09:15:21;;;;;;;8.55;2.53;;;;;;;6.21;69.81;100857.56;4931689;28;20115;-52
2023/01/11 09:17:47;;;;;;;7.13;2.67;;;;;;;6.26;69.62;100866.09;4945270;28;20178;-52
2023/01/11 09:20:12;;;;;;;6.22;1.92;;;;;;;6.28;69.47;100864.25;4946854;28;20543;-56
2023/01/11 09:22:38;;;;;;;6.65;2.08;;;;;;;6.30;69.29;100864.22;4949095;28;20598;-53
2023/01/11 09:25:04;;;;;;;4.35;1.95;;;;;;;6.30;69.72;100861.59;4948128;28;20139;-54
2023/01/11 09:27:30;;;;;;;7.88;2.25;;;;;;;6.29;70.10;100860.72;4955084;28;20077;-52
2023/01/11 09:29:55;;;;;;;6.15;2.42;;;;;;;6.29;70.13;100855.50;4955028;28;20146;-55
2023/01/11 09:32:21;;;;;;;7.57;1.88;;;;;;;6.28;70.34;100851.19;4959908;28;20064;-52
2023/01/11 09:34:48;;;;;;;7.20;2.08;;;;;;;6.30;70.59;100851.97;4946948;28;20463;-53
2023/01/11 09:37:14;;;;;;;5.90;3.00;;;;;;;6.33;70.29;100838.81;4950015;28;20523;-53
2023/01/11 09:39:40;;;;;;;9.98;2.58;;;;;;;6.37;70.54;100840.41;4950860;28;20090;-55
2023/01/11 09:42:37;;;;;;;6.53;2.90;;;;;;;6.39;70.46;100842.94;4943931;28;20092;-55
2023/01/11 09:45:13;;;;;;;9.25;3.00;;;;;;;6.39;70.91;100837.72;4946393;28;20088;-54
2023/01/11 09:47:51;;;;;;;10.82;5.00;;;;;;;6.43;70.69;100835.84;4951470;28;20102;-56
2023/01/11 09:50:27;;;;;;;7.35;2.88;;;;;;;6.44;70.87;100834.91;4950513;28;20481;-52
2023/01/11 09:53:02;;;;;;;7.68;2.25;;;;;;;6.48;70.91;100836.50;4944580;28;20087;-52
2023/01/11 09:55:38;;;;;;;8.10;2.83;;;;;;;6.49;70.78;100827.75;4951196;28;20134;-52
2023/01/11 09:58:35;;;;;;;6.07;2.20;;;;;;;6.48;71.28;100828.66;4947415;28;20072;-54
2023/01/11 10:01:05;;;;;;;7.82;2.20;;;;;;;6.49;71.33;100822.53;4949006;28;20084;-55
2023/01/11 10:03:42;;;;;;;6.93;2.47;;;;;;;6.51;71.34;100818.94;4950677;28;20103;-53
2023/01/11 10:06:13;;;;;;;8.27;2.53;;;;;;;6.50;71.60;100819.00;4952214;28;20562;-55
2023/01/11 10:08:58;;;;;;;6.07;2.28;;;;;;;6.50;72.01;100819.00;4949677;28;20225;-54
2023/01/11 10:12:01;;;;;;;5.35;2.13;;;;;;;6.54;71.94;100820.59;4948912;28;20159;-53
2023/01/11 10:14:47;;;;;;;6.28;2.78;;;;;;;6.54;72.20;100813.59;4943182;28;20609;-52
2023/01/11 10:17:41;;;;;;;5.93;2.95;;;;;;;6.59;72.19;100815.16;4953203;28;20083;-55
2023/01/11 10:20:34;;;;;;;10.65;2.63;;;;;;;6.64;72.04;100813.22;4947472;28;20068;-55
2023/01/11 10:23:27;;;;;;;7.47;2.30;;;;;;;6.67;71.80;100808.72;4947675;28;20095;-56
2023/01/11 10:26:00;;;;;;;8.73;2.83;;;;;;;6.76;71.84;100812.72;4951100;28;20095;-53
2023/01/11 10:29:02;;;;;;;7.03;2.38;;;;;;;6.83;71.65;100806.31;4956050;28;20189;-53
2023/01/11 10:43:16;;;;;;;5.63;1.90;;;;;;;7.08;71.22;100797.47;4945505;28;20111;-54
2023/01/11 10:45:49;;;;;;;4.22;1.77;;;;;;;7.10;71.23;100795.66;4953903;28;20119;-52
2023/01/11 10:48:41;;;;;;;6.47;2.40;;;;;;;7.13;71.43;100789.41;4946539;28;20087;-51
2023/01/11 10:51:13;;;;;;;5.73;2.60;;;;;;;7.14;71.46;100786.72;4951109;28;20084;-52
2023/01/11 10:53:50;;;;;;;;;;;;;;;7.11;72.08;100778.16;4965437;28;20110;-52
2023/01/11 10:56:20;;;;;;;7.63;1.83;;;;;;;7.16;71.54;100778.81;4951274;28;19970;-52
2023/01/11 10:58:52;;;;;;;5.30;2.03;;;;;;;7.21;71.50;100776.84;4950740;28;20568;-52
2023/01/11 11:01:33;;;;;;;6.25;1.95;;;;;;;7.26;71.39;100772.28;4947483;28;20182;-53
2023/01/11 11:04:14;;;;;;;4.85;2.28;;;;;;;7.30;71.70;100776.47;4945176;28;20099;-51
2023/01/11 11:07:10;;;;;;;6.05;2.25;;;;;;;7.33;71.41;100772.84;4948154;28;20079;-54
2023/01/11 11:09:39;;;;;;;6.28;2.25;;;;;;;7.37;71.43;100778.78;4959431;28;20092;-57
2023/01/11 11:12:15;;;;;;;4.00;1.33;;;;;;;7.40;71.34;100765.56;4945925;28;20158;-59
2023/01/11 11:15:08;;;;;;;4.53;1.60;;;;;;;7.43;71.31;100761.03;4942055;28;20083;-55
2023/01/11 11:17:36;;;;;;;3.83;2.03;;;;;;;7.50;70.89;100750.31;4944996;28;20083;-52
2023/01/11 11:20:15;;;;;;;5.07;3.15;;;;;;;7.51;71.20;100754.63;4950582;28;20091;-56
2023/01/11 11:22:41;;;;;;;6.82;2.33;;;;;;;7.52;70.85;100746.69;4946352;28;20087;-53
2023/01/11 11:25:15;;;;;;;7.20;2.35;;;;;;;7.53;71.06;100748.41;4948019;28;20134;-55
2023/01/11 11:27:49;;;;;;;4.25;2.13;;;;;;;7.55;71.14;100748.34;4941272;28;23918;-56
2023/01/11 11:30:27;;;;;;;5.18;2.25;;;;;;;7.55;71.19;100743.94;4939037;28;20131;-53
2023/01/11 11:33:00;;;;;;;9.20;3.35;;;;;;;7.57;71.20;100742.13;4946594;28;20099;-52
2023/01/11 11:35:40;;;;;;;4.15;1.42;;;;;;;7.55;71.13;100749.19;4941466;28;20118;-53
2023/01/11 11:38:22;;;;;;;7.10;2.83;;;;;;;7.56;71.28;100735.19;4946497;28;20079;-53
2023/01/11 11:41:06;;;;;;;6.63;2.33;;;;;;;7.60;71.36;100743.72;4948917;28;20084;-53
2023/01/11 11:43:34;;;;;;;4.28;1.50;;;;;;;7.58;71.71;100738.56;4950961;28;20104;-53
2023/01/11 11:46:03;;;;;;;6.18;1.95;;;;;;;7.57;71.64;100731.63;4949189;28;20091;-54
2023/01/11 11:48:32;;;;;;;5.38;2.20;;;;;;;7.57;71.98;100731.63;4940022;28;20163;-55
2023/01/11 11:51:02;;;;;;;7.38;3.22;;;;;;;7.59;71.88;100728.94;4942549;28;20084;-52
2023/01/11 11:53:57;;;;;;;7.30;3.42;;;;;;;7.58;72.04;100722.00;4935869;28;20115;-58
2023/01/11 11:56:28;;;;;;;4.93;1.75;;;;;;;7.60;71.93;100712.31;4933154;28;20175;-54
2023/01/11 11:58:55;;;;;;;7.00;2.63;;;;;;;7.59;72.28;100719.34;4975708;23;20119;-60
2023/01/11 12:01:35;;;;;;;10.40;4.07;;;;;;;7.58;72.41;100706.28;4953745;28;20194;-59
2023/01/11 12:04:13;;;;;;;5.97;2.47;;;;;;;7.56;73.25;100711.59;4957517;28;20098;-62
2023/01/11 12:06:39;;;;;;;6.53;2.60;;;;;;;7.57;73.29;100700.22;4954751;28;20146;-59
2023/01/11 12:09:15;;;;;;;3.33;2.45;;;;;;;7.57;73.36;100694.97;4938495;28;20151;-58
2023/01/11 12:11:41;;;;;;;5.05;1.58;;;;;;;7.54;73.64;100700.34;4941685;28;20543;-59
2023/01/11 12:14:09;;;;;;;4.35;2.00;;;;;;;7.50;73.88;100693.53;4943570;28;20176;-58
2023/01/11 12:16:39;;;;;;;5.63;2.13;;;;;;;7.47;74.43;100698.94;4945971;28;20090;-59
2023/01/11 12:19:25;;;;;;;6.03;2.10;;;;;;;7.43;74.89;100700.00;4944282;28;20166;-60
2023/01/11 12:21:50;;;;;;;8.57;2.42;;;;;;;7.38;74.85;100694.97;4943352;28;20206;-58
2023/01/11 12:24:18;;;;;;;5.90;2.28;;;;;;;7.36;75.21;100699.44;4935653;28;20083;-57
2023/01/11 12:27:19;;;;;;;5.65;2.40;;;;;;;7.31;75.67;100694.41;4943087;28;20075;-60
2023/01/11 12:30:14;;;;;;;6.63;4.63;;;;;;;7.25;75.93;100702.50;4939784;28;20107;-60